Keswick, IA

3:37 PM CST on February 10, 2016 (GMT -0600)
Dietze Weather Station | | Change Station
CLOSE
Current Station
Personal Weather Station
Location: Millersburg, IA
Elevation: 883 ft
Nearby Weather Stations

Elev 883 ft 41.57 °N, 92.16 °W | Updated 13 seconds ago

Overcast
Overcast
17.4 °F
Feels Like 17 °F
N
0.0
Wind Variable Wind from NNE
Gusts 0.0 mph

Today
High -- | Low -- °F
--% Chance of Precip.
Yesterday
High -- | Low -- °F
Precip. -- in
Pressure 30.07 in
Visibility 10.0 miles
Clouds Scattered Clouds 1300 ft
Scattered Clouds 3000 ft
Overcast 4300 ft
Windchill 17 °F
Dew Point 6 °F
Humidity 61%
Rainfall 0.00 in
Snow Depth Not available.
7:11 AM 5:35 PM
Waxing Crescent, 7% visible
METAR KOOA 102115Z AUTO 10003KT 10SM -SN SCT013 SCT030 OVC043 M07/M10 A3007 RMK AO2 T10751102
Pressure 30.07 in
Visibility 10.0 miles
Clouds Scattered Clouds 1300 ft
Scattered Clouds 3000 ft
Overcast 4300 ft
Windchill 17 °F
Dew Point 6 °F
Humidity 61%
Rainfall 0.00 in
Snow Depth Not available.
7:11 AM 5:35 PM
Waxing Crescent, 7% visible
METAR KOOA 102115Z AUTO 10003KT 10SM -SN SCT013 SCT030 OVC043 M07/M10 A3007 RMK AO2 T10751102

10-Day Weather Forecast

Almanac

Astronomy

Feb. 10, 2016 Rise Set
Actual Time
Civil Twilight
Nautical Twilight
Astronomical Twilight
Moon
Length of Visible Light
Length of Day
Tomorrow will be .
, % of the Moon is Illuminated

Today's Extremes

State Highs State Lows

Community

WunderPhotos

Upload Photos

1,891,950 photos uploaded!

WunderBlog® & News

Nearby

Air Quality

  Air Quality AQ Index Pollutant
Not available.

Snow Depth

Station Depth Elevation

Earthquake Activity

City Distance Mag. Time & Date
Minimum magnitude displayed is 2.5.

Coastal Water Temperatures

Place Temperature

Stations

Nearby Weather Stations

Station Location Temp. Windchill Dew Point Humidity Wind Precip. Elev Updated Type
                   

Watches & Warnings

There are currently no watches in effect.